Terminal Aerodrome Forecast
Issued by NWS

Home | Current Version | Previous Version | Text Only | Print | Product List | Glossary On
Versions: 1 2 3 4 5 6 7 8 9 10 11 12 13 14 15 16 17 18 19 20
188
FTUS41 KPBZ 211736
TAFLBE
TAF
KLBE 211736Z 2118/2218 20008KT P6SM BKN250
     FM220900 11004KT 4SM BR BKN150
     FM221200 09004KT P6SM BKN080=

USA.gov is the U.S. government's official web portal to all federal, state and local government web resources and services.